sensor_id;sensor_type;location;lat;lon;timestamp;pressure;altitude;pressure_sealevel;temperature;humidity
37202;BME280;37799;52.390;6.136;2023-04-29T00:01:29;101345.31;;;9.79;100.00
37202;BME280;37799;52.390;6.136;2023-04-29T00:03:55;101350.47;;;9.79;100.00
37202;BME280;37799;52.390;6.136;2023-04-29T00:06:20;101353.94;;;9.78;100.00
37202;BME280;37799;52.390;6.136;2023-04-29T00:08:46;101360.00;;;9.74;100.00
37202;BME280;37799;52.390;6.136;2023-04-29T00:11:11;101354.81;;;9.75;100.00
37202;BME280;37799;52.390;6.136;2023-04-29T00:13:37;101356.53;;;9.78;100.00
37202;BME280;37799;52.390;6.136;2023-04-29T00:16:06;101355.59;;;9.82;100.00
37202;BME280;37799;52.390;6.136;2023-04-29T00:18:32;101360.78;;;9.82;100.00
37202;BME280;37799;52.390;6.136;2023-04-29T00:20:57;101359.13;;;9.75;100.00
37202;BME280;37799;52.390;6.136;2023-04-29T00:23:23;101367.06;;;9.63;100.00
37202;BME280;37799;52.390;6.136;2023-04-29T00:25:48;101367.72;;;9.79;100.00
37202;BME280;37799;52.390;6.136;2023-04-29T00:28:15;101370.47;;;9.66;100.00
37202;BME280;37799;52.390;6.136;2023-04-29T00:30:41;101371.41;;;9.61;100.00
37202;BME280;37799;52.390;6.136;2023-04-29T00:33:06;101378.25;;;9.65;100.00
37202;BME280;37799;52.390;6.136;2023-04-29T00:35:31;101378.16;;;9.71;100.00
37202;BME280;37799;52.390;6.136;2023-04-29T00:37:57;101388.47;;;9.74;100.00
37202;BME280;37799;52.390;6.136;2023-04-29T00:40:22;101393.81;;;9.60;100.00
37202;BME280;37799;52.390;6.136;2023-04-29T00:42:47;101390.41;;;9.58;100.00
37202;BME280;37799;52.390;6.136;2023-04-29T00:45:13;101398.97;;;9.62;100.00
37202;BME280;37799;52.390;6.136;2023-04-29T00:47:38;101398.97;;;9.62;100.00
37202;BME280;37799;52.390;6.136;2023-04-29T00:50:05;101393.06;;;9.54;100.00
37202;BME280;37799;52.390;6.136;2023-04-29T00:52:31;101396.56;;;9.48;100.00
37202;BME280;37799;52.390;6.136;2023-04-29T00:54:58;101396.53;;;9.53;100.00
37202;BME280;37799;52.390;6.136;2023-04-29T00:57:24;101405.13;;;9.53;100.00
37202;BME280;37799;52.390;6.136;2023-04-29T00:59:49;101399.97;;;9.50;100.00
37202;BME280;37799;52.390;6.136;2023-04-29T01:02:15;101412.00;;;9.56;100.00
37202;BME280;37799;52.390;6.136;2023-04-29T01:04:41;101423.25;;;9.52;100.00
37202;BME280;37799;52.390;6.136;2023-04-29T01:07:14;101420.56;;;9.59;100.00
37202;BME280;37799;52.390;6.136;2023-04-29T01:09:52;101421.44;;;9.58;100.00
37202;BME280;37799;52.390;6.136;2023-04-29T01:15:20;101427.56;;;9.50;100.00
37202;BME280;37799;52.390;6.136;2023-04-29T01:17:50;101435.31;;;9.50;100.00
37202;BME280;37799;52.390;6.136;2023-04-29T01:20:16;101433.59;;;9.50;100.00
37202;BME280;37799;52.390;6.136;2023-04-29T01:22:42;101442.22;;;9.48;100.00
37202;BME280;37799;52.390;6.136;2023-04-29T01:25:07;101441.38;;;9.47;100.00
37202;BME280;37799;52.390;6.136;2023-04-29T01:27:41;101439.69;;;9.44;100.00
37202;BME280;37799;52.390;6.136;2023-04-29T01:30:45;101437.06;;;9.51;100.00
37202;BME280;37799;52.390;6.136;2023-04-29T01:33:39;101445.50;;;9.62;100.00
37202;BME280;37799;52.390;6.136;2023-04-29T01:36:25;101444.81;;;9.51;100.00
37202;BME280;37799;52.390;6.136;2023-04-29T01:39:06;101456.84;;;9.53;100.00
37202;BME280;37799;52.390;6.136;2023-04-29T01:44:14;101450.88;;;9.46;100.00
37202;BME280;37799;52.390;6.136;2023-04-29T01:46:42;101455.94;;;9.56;100.00
37202;BME280;37799;52.390;6.136;2023-04-29T01:49:08;101462.00;;;9.53;100.00
37202;BME280;37799;52.390;6.136;2023-04-29T01:51:33;101459.44;;;9.52;100.00
37202;BME280;37799;52.390;6.136;2023-04-29T01:53:58;101473.28;;;9.44;100.00
37202;BME280;37799;52.390;6.136;2023-04-29T01:56:24;101461.19;;;9.48;100.00
37202;BME280;37799;52.390;6.136;2023-04-29T01:58:49;101467.22;;;9.47;100.00
37202;BME280;37799;52.390;6.136;2023-04-29T02:01:14;101482.81;;;9.41;100.00
37202;BME280;37799;52.390;6.136;2023-04-29T02:03:40;101476.72;;;9.46;100.00
37202;BME280;37799;52.390;6.136;2023-04-29T02:06:05;101484.44;;;9.48;100.00
37202;BME280;37799;52.390;6.136;2023-04-29T02:08:31;101481.91;;;9.45;100.00
37202;BME280;37799;52.390;6.136;2023-04-29T02:10:57;101483.59;;;9.48;100.00
37202;BME280;37799;52.390;6.136;2023-04-29T02:13:24;101480.91;;;9.58;100.00
37202;BME280;37799;52.390;6.136;2023-04-29T02:15:49;101491.31;;;9.54;100.00
37202;BME280;37799;52.390;6.136;2023-04-29T02:18:15;101499.16;;;9.44;100.00
37202;BME280;37799;52.390;6.136;2023-04-29T02:20:41;101506.94;;;9.43;100.00
37202;BME280;37799;52.390;6.136;2023-04-29T02:23:06;101500.94;;;9.39;100.00
37202;BME280;37799;52.390;6.136;2023-04-29T02:25:31;101507.81;;;9.40;100.00
37202;BME280;37799;52.390;6.136;2023-04-29T02:27:57;101507.78;;;9.43;100.00
37202;BME280;37799;52.390;6.136;2023-04-29T02:30:22;101507.09;;;9.26;100.00
37202;BME280;37799;52.390;6.136;2023-04-29T02:32:47;101518.19;;;9.34;100.00
37202;BME280;37799;52.390;6.136;2023-04-29T02:35:13;101515.50;;;9.45;100.00
37202;BME280;37799;52.390;6.136;2023-04-29T02:37:38;101515.56;;;9.40;100.00
37202;BME280;37799;52.390;6.136;2023-04-29T02:40:04;101521.56;;;9.44;100.00
37202;BME280;37799;52.390;6.136;2023-04-29T02:42:30;101525.09;;;9.34;100.00
37202;BME280;37799;52.390;6.136;2023-04-29T02:44:55;101532.94;;;9.26;100.00
37202;BME280;37799;52.390;6.136;2023-04-29T02:47:21;101533.81;;;9.25;100.00
37202;BME280;37799;52.390;6.136;2023-04-29T02:49:46;101532.09;;;9.26;100.00
37202;BME280;37799;52.390;6.136;2023-04-29T02:52:11;101541.38;;;9.43;100.00
37202;BME280;37799;52.390;6.136;2023-04-29T02:54:37;101538.91;;;9.33;100.00
37202;BME280;37799;52.390;6.136;2023-04-29T02:57:03;101547.47;;;9.39;100.00
37202;BME280;37799;52.390;6.136;2023-04-29T02:59:28;101549.22;;;9.34;100.00
37202;BME280;37799;52.390;6.136;2023-04-29T03:01:53;101547.47;;;9.36;100.00
37202;BME280;37799;52.390;6.136;2023-04-29T03:04:19;101536.38;;;9.27;100.00
37202;BME280;37799;52.390;6.136;2023-04-29T03:06:44;101545.88;;;9.22;100.00
37202;BME280;37799;52.390;6.136;2023-04-29T03:09:10;101547.69;;;9.15;100.00
37202;BME280;37799;52.390;6.136;2023-04-29T03:11:37;101549.44;;;9.13;100.00
37202;BME280;37799;52.390;6.136;2023-04-29T03:14:02;101550.94;;;9.35;100.00
37202;BME280;37799;52.390;6.136;2023-04-29T03:16:28;101551.78;;;9.39;100.00
37202;BME280;37799;52.390;6.136;2023-04-29T03:18:54;101553.59;;;9.28;100.00
37202;BME280;37799;52.390;6.136;2023-04-29T03:21:19;101558.75;;;9.31;100.00
37202;BME280;37799;52.390;6.136;2023-04-29T03:23:44;101561.28;;;9.35;100.00
37202;BME280;37799;52.390;6.136;2023-04-29T03:26:10;101564.84;;;9.22;100.00
37202;BME280;37799;52.390;6.136;2023-04-29T03:28:35;101569.16;;;9.25;100.00
37202;BME280;37799;52.390;6.136;2023-04-29T03:31:01;101573.34;;;9.35;100.00
37202;BME280;37799;52.390;6.136;2023-04-29T03:33:27;101564.84;;;9.25;100.00
37202;BME280;37799;52.390;6.136;2023-04-29T03:35:52;101572.56;;;9.24;100.00
37202;BME280;37799;52.390;6.136;2023-04-29T03:38:17;101575.16;;;9.22;100.00
37202;BME280;37799;52.390;6.136;2023-04-29T03:40:43;101578.59;;;9.27;100.00
37202;BME280;37799;52.390;6.136;2023-04-29T03:43:09;101576.00;;;9.24;100.00
37202;BME280;37799;52.390;6.136;2023-04-29T03:45:35;101577.63;;;9.37;100.00
37202;BME280;37799;52.390;6.136;2023-04-29T03:48:00;101578.56;;;9.30;100.00
37202;BME280;37799;52.390;6.136;2023-04-29T03:50:26;101580.25;;;9.33;100.00
37202;BME280;37799;52.390;6.136;2023-04-29T03:52:55;101575.91;;;9.35;100.00
37202;BME280;37799;52.390;6.136;2023-04-29T03:55:22;101588.78;;;9.42;100.00
37202;BME280;37799;52.390;6.136;2023-04-29T03:57:47;101591.44;;;9.33;100.00
37202;BME280;37799;52.390;6.136;2023-04-29T04:00:12;101584.53;;;9.34;100.00
37202;BME280;37799;52.390;6.136;2023-04-29T04:02:38;101593.13;;;9.36;100.00
37202;BME280;37799;52.390;6.136;2023-04-29T04:05:03;101593.13;;;9.36;100.00
37202;BME280;37799;52.390;6.136;2023-04-29T04:07:29;101592.38;;;9.23;100.00
37202;BME280;37799;52.390;6.136;2023-04-29T04:09:54;101598.47;;;9.19;100.00
37202;BME280;37799;52.390;6.136;2023-04-29T04:12:20;101597.66;;;9.11;100.00
37202;BME280;37799;52.390;6.136;2023-04-29T04:14:45;101601.13;;;9.07;100.00
37202;BME280;37799;52.390;6.136;2023-04-29T04:17:11;101602.81;;;9.11;100.00
37202;BME280;37799;52.390;6.136;2023-04-29T04:19:36;101614.91;;;9.12;100.00
37202;BME280;37799;52.390;6.136;2023-04-29T04:22:02;101615.81;;;9.02;100.00
37202;BME280;37799;52.390;6.136;2023-04-29T04:24:29;101621.84;;;9.04;100.00
37202;BME280;37799;52.390;6.136;2023-04-29T04:26:54;101611.50;;;9.04;100.00
37202;BME280;37799;52.390;6.136;2023-04-29T04:29:20;101608.84;;;9.10;100.00
37202;BME280;37799;52.390;6.136;2023-04-29T04:31:45;101618.34;;;9.08;100.00
37202;BME280;37799;52.390;6.136;2023-04-29T04:34:11;101622.66;;;9.09;100.00
37202;BME280;37799;52.390;6.136;2023-04-29T04:36:36;101618.34;;;9.08;100.00
37202;BME280;37799;52.390;6.136;2023-04-29T04:39:02;101625.25;;;9.06;100.00
37202;BME280;37799;52.390;6.136;2023-04-29T04:41:27;101637.34;;;9.04;100.00
37202;BME280;37799;52.390;6.136;2023-04-29T04:43:55;101638.09;;;9.18;100.00
37202;BME280;37799;52.390;6.136;2023-04-29T04:46:20;101639.78;;;9.21;100.00
37202;BME280;37799;52.390;6.136;2023-04-29T04:48:46;101648.47;;;9.13;100.00
37202;BME280;37799;52.390;6.136;2023-04-29T04:51:12;101645.94;;;9.06;100.00
37202;BME280;37799;52.390;6.136;2023-04-29T04:53:38;101648.47;;;9.15;100.00
37202;BME280;37799;52.390;6.136;2023-04-29T04:56:04;101652.75;;;9.18;100.00
37202;BME280;37799;52.390;6.136;2023-04-29T04:58:31;101657.00;;;9.22;100.00
37202;BME280;37799;52.390;6.136;2023-04-29T05:00:57;101663.13;;;9.10;100.00
37202;BME280;37799;52.390;6.136;2023-04-29T05:03:22;101659.66;;;9.11;100.00
37202;BME280;37799;52.390;6.136;2023-04-29T05:05:57;101655.28;;;9.25;100.00
37202;BME280;37799;52.390;6.136;2023-04-29T05:08:23;101664.81;;;9.17;100.00
37202;BME280;37799;52.390;6.136;2023-04-29T05:10:49;101667.31;;;9.23;100.00
37202;BME280;37799;52.390;6.136;2023-04-29T05:13:14;101670.81;;;9.19;100.00
37202;BME280;37799;52.390;6.136;2023-04-29T05:15:40;101677.69;;;9.25;100.00
37202;BME280;37799;52.390;6.136;2023-04-29T05:18:06;101674.94;;;9.44;100.00
37202;BME280;37799;52.390;6.136;2023-04-29T05:20:31;101678.47;;;9.31;100.00
37202;BME280;37799;52.390;6.136;2023-04-29T05:22:56;101685.38;;;9.32;100.00
37202;BME280;37799;52.390;6.136;2023-04-29T05:25:21;101689.69;;;9.32;100.00
37202;BME280;37799;52.390;6.136;2023-04-29T05:27:47;101683.59;;;9.36;100.00
37202;BME280;37799;52.390;6.136;2023-04-29T05:30:12;101691.38;;;9.39;100.00
37202;BME280;37799;52.390;6.136;2023-04-29T05:32:37;101690.44;;;9.44;100.00
37202;BME280;37799;52.390;6.136;2023-04-29T05:35:03;101690.41;;;9.51;100.00
37202;BME280;37799;52.390;6.136;2023-04-29T05:37:28;101702.44;;;9.55;100.00
37202;BME280;37799;52.390;6.136;2023-04-29T05:39:56;101709.25;;;9.62;100.00
37202;BME280;37799;52.390;6.136;2023-04-29T05:42:21;101711.03;;;9.57;100.00
37202;BME280;37799;52.390;6.136;2023-04-29T05:44:48;101717.88;;;9.64;100.00
37202;BME280;37799;52.390;6.136;2023-04-29T05:47:13;101718.66;;;9.73;100.00
37202;BME280;37799;52.390;6.136;2023-04-29T05:49:39;101723.88;;;9.67;100.00
37202;BME280;37799;52.390;6.136;2023-04-29T05:52:04;101724.59;;;9.83;100.00
37202;BME280;37799;52.390;6.136;2023-04-29T05:54:31;101722.91;;;9.82;100.00
37202;BME280;37799;52.390;6.136;2023-04-29T05:56:58;101732.38;;;9.83;100.00
37202;BME280;37799;52.390;6.136;2023-04-29T05:59:23;101731.44;;;9.89;100.00
37202;BME280;37799;52.390;6.136;2023-04-29T06:01:49;101735.75;;;9.88;100.00
37202;BME280;37799;52.390;6.136;2023-04-29T06:04:14;101740.94;;;9.88;100.00
37202;BME280;37799;52.390;6.136;2023-04-29T06:06:39;101743.41;;;10.03;100.00
37202;BME280;37799;52.390;6.136;2023-04-29T06:09:04;101753.72;;;10.07;100.00
37202;BME280;37799;52.390;6.136;2023-04-29T06:11:30;101749.44;;;10.05;100.00
37202;BME280;37799;52.390;6.136;2023-04-29T06:13:55;101758.88;;;10.10;100.00
37202;BME280;37799;52.390;6.136;2023-04-29T06:16:22;101758.00;;;10.09;100.00
37202;BME280;37799;52.390;6.136;2023-04-29T06:18:47;101757.13;;;10.12;100.00
37202;BME280;37799;52.390;6.136;2023-04-29T06:21:12;101756.19;;;10.19;100.00
37202;BME280;37799;52.390;6.136;2023-04-29T06:23:38;101755.28;;;10.29;100.00
37202;BME280;37799;52.390;6.136;2023-04-29T06:26:03;101765.59;;;10.32;100.00
37202;BME280;37799;52.390;6.136;2023-04-29T06:28:28;101765.63;;;10.26;100.00
37202;BME280;37799;52.390;6.136;2023-04-29T06:30:54;101764.66;;;10.38;100.00
37202;BME280;37799;52.390;6.136;2023-04-29T06:33:19;101766.38;;;10.39;100.00
37202;BME280;37799;52.390;6.136;2023-04-29T06:35:45;101780.94;;;10.50;100.00
37202;BME280;37799;52.390;6.136;2023-04-29T06:38:10;101775.50;;;10.73;100.00
37202;BME280;37799;52.390;6.136;2023-04-29T06:40:35;101778.06;;;10.75;100.00
37202;BME280;37799;52.390;6.136;2023-04-29T06:43:01;101783.19;;;10.82;100.00
37202;BME280;37799;52.390;6.136;2023-04-29T06:45:27;101789.06;;;10.93;100.00
37202;BME280;37799;52.390;6.136;2023-04-29T06:47:52;101781.88;;;11.15;100.00
37202;BME280;37799;52.390;6.136;2023-04-29T06:50:18;101792.09;;;11.28;100.00
37202;BME280;37799;52.390;6.136;2023-04-29T06:52:44;101788.38;;;11.47;100.00
37202;BME280;37799;52.390;6.136;2023-04-29T06:55:09;101799.44;;;11.60;100.00
37202;BME280;37799;52.390;6.136;2023-04-29T06:57:35;101801.41;;;12.01;100.00
37202;BME280;37799;52.390;6.136;2023-04-29T07:00:01;101801.34;;;12.04;100.00
37202;BME280;37799;52.390;6.136;2023-04-29T07:02:26;101814.91;;;12.21;100.00
37202;BME280;37799;52.390;6.136;2023-04-29T07:04:52;101827.63;;;12.35;100.00
37202;BME280;37799;52.390;6.136;2023-04-29T07:07:17;101824.16;;;12.36;100.00
37202;BME280;37799;52.390;6.136;2023-04-29T07:09:43;101828.56;;;12.32;100.00
37202;BME280;37799;52.390;6.136;2023-04-29T07:12:08;101830.16;;;12.41;100.00
37202;BME280;37799;52.390;6.136;2023-04-29T07:14:33;101834.53;;;12.36;100.00
37202;BME280;37799;52.390;6.136;2023-04-29T07:17:01;101831.97;;;12.34;100.00
37202;BME280;37799;52.390;6.136;2023-04-29T07:19:26;101836.19;;;12.42;100.00
37202;BME280;37799;52.390;6.136;2023-04-29T07:21:52;101843.94;;;12.45;100.00
37202;BME280;37799;52.390;6.136;2023-04-29T07:24:17;101846.53;;;12.45;100.00
37202;BME280;37799;52.390;6.136;2023-04-29T07:26:43;101856.59;;;12.61;100.00
37202;BME280;37799;52.390;6.136;2023-04-29T07:29:11;101855.31;;;12.85;100.00
37202;BME280;37799;52.390;6.136;2023-04-29T07:31:36;101857.59;;;13.02;100.00
37202;BME280;37799;52.390;6.136;2023-04-29T07:34:02;101866.03;;;13.12;100.00
37202;BME280;37799;52.390;6.136;2023-04-29T07:36:27;101870.16;;;13.25;100.00
37202;BME280;37799;52.390;6.136;2023-04-29T07:38:53;101876.91;;;13.34;100.00
37202;BME280;37799;52.390;6.136;2023-04-29T07:41:19;101880.28;;;13.37;100.00
37202;BME280;37799;52.390;6.136;2023-04-29T07:43:44;101883.41;;;13.54;100.00
37202;BME280;37799;52.390;6.136;2023-04-29T07:46:09;101881.44;;;13.64;100.00
37202;BME280;37799;52.390;6.136;2023-04-29T07:48:37;101882.03;;;13.77;100.00
37202;BME280;37799;52.390;6.136;2023-04-29T07:51:03;101885.66;;;14.08;100.00
37202;BME280;37799;52.390;6.136;2023-04-29T07:53:29;101891.22;;;14.29;100.00
37202;BME280;37799;52.390;6.136;2023-04-29T07:55:54;101882.38;;;14.36;100.00
37202;BME280;37799;52.390;6.136;2023-04-29T07:58:20;101892.84;;;14.68;100.00
37202;BME280;37799;52.390;6.136;2023-04-29T08:00:46;101902.81;;;14.87;100.00
37202;BME280;37799;52.390;6.136;2023-04-29T08:03:11;101907.63;;;15.02;100.00
37202;BME280;37799;52.390;6.136;2023-04-29T08:05:37;101910.59;;;15.19;100.00
37202;BME280;37799;52.390;6.136;2023-04-29T08:08:03;101914.91;;;15.20;100.00
37202;BME280;37799;52.390;6.136;2023-04-29T08:10:28;101920.94;;;15.22;100.00
37202;BME280;37799;52.390;6.136;2023-04-29T08:12:53;101921.59;;;15.30;100.00
37202;BME280;37799;52.390;6.136;2023-04-29T08:15:19;101921.28;;;15.41;100.00
37202;BME280;37799;52.390;6.136;2023-04-29T08:17:44;101925.09;;;15.29;100.00
37202;BME280;37799;52.390;6.136;2023-04-29T08:20:10;101931.78;;;15.40;100.00
37202;BME280;37799;52.390;6.136;2023-04-29T08:22:35;101938.00;;;15.95;100.00
37202;BME280;37799;52.390;6.136;2023-04-29T08:25:02;101936.56;;;16.12;100.00
37202;BME280;37799;52.390;6.136;2023-04-29T08:27:29;101934.53;;;16.48;100.00
37202;BME280;37799;52.390;6.136;2023-04-29T08:29:54;101936.84;;;16.58;100.00
37202;BME280;37799;52.390;6.136;2023-04-29T08:32:20;101938.94;;;16.99;100.00
37202;BME280;37799;52.390;6.136;2023-04-29T08:34:45;101954.56;;;17.01;100.00
37202;BME280;37799;52.390;6.136;2023-04-29T08:37:11;101945.69;;;17.30;100.00
37202;BME280;37799;52.390;6.136;2023-04-29T08:39:36;101952.63;;;17.31;100.00
37202;BME280;37799;52.390;6.136;2023-04-29T08:42:08;101954.69;;;17.71;100.00
37202;BME280;37799;52.390;6.136;2023-04-29T08:44:34;101965.00;;;17.97;100.00
37202;BME280;37799;52.390;6.136;2023-04-29T08:47:00;101971.94;;;18.20;100.00
37202;BME280;37799;52.390;6.136;2023-04-29T08:49:27;101976.34;;;18.42;98.49
37202;BME280;37799;52.390;6.136;2023-04-29T08:51:53;101975.38;;;18.44;100.00
37202;BME280;37799;52.390;6.136;2023-04-29T08:54:18;101973.84;;;18.39;96.44
37202;BME280;37799;52.390;6.136;2023-04-29T08:56:45;101966.91;;;18.16;100.00
37202;BME280;37799;52.390;6.136;2023-04-29T08:59:13;101974.56;;;18.20;95.89
37202;BME280;37799;52.390;6.136;2023-04-29T09:01:39;101975.00;;;17.88;96.35
37202;BME280;37799;52.390;6.136;2023-04-29T09:06:35;101982.13;;;18.06;96.16
37202;BME280;37799;52.390;6.136;2023-04-29T09:09:01;101973.09;;;18.35;92.79
37202;BME280;37799;52.390;6.136;2023-04-29T09:11:29;101984.44;;;19.00;92.55
37202;BME280;37799;52.390;6.136;2023-04-29T09:14:01;101984.56;;;18.97;88.83
37202;BME280;37799;52.390;6.136;2023-04-29T09:16:27;101986.53;;;19.12;88.82
37202;BME280;37799;52.390;6.136;2023-04-29T09:18:53;101990.78;;;19.35;90.00
37202;BME280;37799;52.390;6.136;2023-04-29T09:21:23;101988.56;;;19.65;83.87
37202;BME280;37799;52.390;6.136;2023-04-29T09:23:52;101990.22;;;19.28;85.00
37202;BME280;37799;52.390;6.136;2023-04-29T09:26:18;101995.41;;;19.30;87.02
37202;BME280;37799;52.390;6.136;2023-04-29T09:28:43;101991.81;;;18.92;89.05
37202;BME280;37799;52.390;6.136;2023-04-29T09:31:10;101995.31;;;19.11;87.52
37202;BME280;37799;52.390;6.136;2023-04-29T09:33:55;101991.50;;;19.38;81.75
37202;BME280;37799;52.390;6.136;2023-04-29T09:36:34;102007.06;;;19.82;80.70
37202;BME280;37799;52.390;6.136;2023-04-29T09:39:00;102000.22;;;20.16;82.21
37202;BME280;37799;52.390;6.136;2023-04-29T09:41:26;102010.53;;;19.64;79.51
37202;BME280;37799;52.390;6.136;2023-04-29T09:44:08;101994.34;;;18.93;80.62
37202;BME280;37799;52.390;6.136;2023-04-29T09:46:34;102004.75;;;18.74;81.17
37202;BME280;37799;52.390;6.136;2023-04-29T09:49:01;102001.88;;;18.58;84.56
37202;BME280;37799;52.390;6.136;2023-04-29T09:51:28;102006.94;;;18.85;90.62
37202;BME280;37799;52.390;6.136;2023-04-29T09:53:57;102005.25;;;18.62;82.90
37202;BME280;37799;52.390;6.136;2023-04-29T09:56:22;102005.84;;;18.47;88.40
37202;BME280;37799;52.390;6.136;2023-04-29T09:58:48;101999.25;;;18.80;88.44
37202;BME280;37799;52.390;6.136;2023-04-29T10:01:13;102001.78;;;19.04;84.48
37202;BME280;37799;52.390;6.136;2023-04-29T10:03:44;102012.00;;;18.46;87.32
37202;BME280;37799;52.390;6.136;2023-04-29T10:06:10;102017.22;;;18.25;92.13
37202;BME280;37799;52.390;6.136;2023-04-29T10:08:36;102013.31;;;18.14;92.55
37202;BME280;37799;52.390;6.136;2023-04-29T10:11:03;102025.38;;;18.40;89.72
37202;BME280;37799;52.390;6.136;2023-04-29T10:13:30;102017.00;;;18.08;90.20
37202;BME280;37799;52.390;6.136;2023-04-29T10:18:48;102017.56;;;18.16;94.42
37202;BME280;37799;52.390;6.136;2023-04-29T10:21:17;102026.03;;;18.01;94.43
37202;BME280;37799;52.390;6.136;2023-04-29T10:23:46;102013.31;;;17.42;97.42
37202;BME280;37799;52.390;6.136;2023-04-29T10:26:14;102013.19;;;17.22;96.94
37202;BME280;37799;52.390;6.136;2023-04-29T10:28:42;102007.75;;;17.51;97.18
37202;BME280;37799;52.390;6.136;2023-04-29T10:31:11;102008.78;;;18.17;93.30
37202;BME280;37799;52.390;6.136;2023-04-29T10:33:39;102008.44;;;19.11;86.59
37202;BME280;37799;52.390;6.136;2023-04-29T10:36:08;102009.75;;;19.99;81.86
37202;BME280;37799;52.390;6.136;2023-04-29T10:38:47;102016.53;;;20.41;78.51
37202;BME280;37799;52.390;6.136;2023-04-29T10:41:24;102017.81;;;19.96;75.58
37202;BME280;37799;52.390;6.136;2023-04-29T10:43:51;102012.94;;;19.29;76.75
37202;BME280;37799;52.390;6.136;2023-04-29T10:46:24;102014.72;;;19.48;78.78
37202;BME280;37799;52.390;6.136;2023-04-29T10:48:56;102013.53;;;20.13;79.07
37202;BME280;37799;52.390;6.136;2023-04-29T10:51:32;102015.16;;;19.96;80.11
37202;BME280;37799;52.390;6.136;2023-04-29T10:54:06;102018.44;;;20.01;80.72
37202;BME280;37799;52.390;6.136;2023-04-29T10:56:39;102023.53;;;19.67;78.76
37202;BME280;37799;52.390;6.136;2023-04-29T10:59:09;102024.09;;;19.55;81.65
37202;BME280;37799;52.390;6.136;2023-04-29T11:01:51;102028.03;;;20.02;78.86
37202;BME280;37799;52.390;6.136;2023-04-29T11:04:19;102026.06;;;20.63;79.20
37202;BME280;37799;52.390;6.136;2023-04-29T11:06:50;102028.06;;;21.09;72.54
37202;BME280;37799;52.390;6.136;2023-04-29T11:09:28;102024.19;;;21.51;72.77
37202;BME280;37799;52.390;6.136;2023-04-29T11:12:04;102031.00;;;22.04;63.56
37202;BME280;37799;52.390;6.136;2023-04-29T11:17:08;102023.97;;;21.87;54.53
37202;BME280;37799;52.390;6.136;2023-04-29T11:19:36;102022.16;;;21.56;62.79
37202;BME280;37799;52.390;6.136;2023-04-29T11:22:08;102028.63;;;20.99;57.92
37202;BME280;37799;52.390;6.136;2023-04-29T11:24:35;102023.97;;;20.33;63.12
37202;BME280;37799;52.390;6.136;2023-04-29T11:27:02;102023.41;;;20.45;65.37
37202;BME280;37799;52.390;6.136;2023-04-29T11:29:31;102023.44;;;21.32;57.45
37202;BME280;37799;52.390;6.136;2023-04-29T11:32:01;102014.88;;;21.77;54.63
37202;BME280;37799;52.390;6.136;2023-04-29T11:34:26;102021.09;;;21.92;55.15
37202;BME280;37799;52.390;6.136;2023-04-29T11:36:53;102021.59;;;21.83;54.60
37202;BME280;37799;52.390;6.136;2023-04-29T11:39:19;102025.03;;;20.65;57.74
37202;BME280;37799;52.390;6.136;2023-04-29T11:41:44;102028.06;;;20.57;57.65
37202;BME280;37799;52.390;6.136;2023-04-29T11:44:10;102024.88;;;20.51;60.99
37202;BME280;37799;52.390;6.136;2023-04-29T11:46:36;102024.03;;;20.68;56.47
37202;BME280;37799;52.390;6.136;2023-04-29T11:49:02;102023.78;;;21.26;55.18
37202;BME280;37799;52.390;6.136;2023-04-29T11:51:27;102020.56;;;21.69;50.75
37202;BME280;37799;52.390;6.136;2023-04-29T11:53:54;102034.25;;;22.09;52.89
37202;BME280;37799;52.390;6.136;2023-04-29T11:56:22;102025.38;;;21.61;52.24
37202;BME280;37799;52.390;6.136;2023-04-29T11:58:54;102030.25;;;21.01;54.60
37202;BME280;37799;52.390;6.136;2023-04-29T12:01:21;102031.84;;;21.21;48.99
37202;BME280;37799;52.390;6.136;2023-04-29T12:03:48;102036.16;;;21.41;51.97
37202;BME280;37799;52.390;6.136;2023-04-29T12:06:13;102039.94;;;21.68;48.01
37202;BME280;37799;52.390;6.136;2023-04-29T12:08:39;102029.25;;;21.87;50.38
37202;BME280;37799;52.390;6.136;2023-04-29T12:11:05;102035.53;;;22.18;49.58
37202;BME280;37799;52.390;6.136;2023-04-29T12:13:32;102032.63;;;22.06;49.57
37202;BME280;37799;52.390;6.136;2023-04-29T12:16:00;102036.91;;;21.76;48.47
37202;BME280;37799;52.390;6.136;2023-04-29T12:18:27;102026.97;;;21.48;48.49
37202;BME280;37799;52.390;6.136;2023-04-29T12:20:53;102028.19;;;21.58;49.10
37202;BME280;37799;52.390;6.136;2023-04-29T12:23:23;102027.53;;;21.86;47.81
37202;BME280;37799;52.390;6.136;2023-04-29T12:25:56;102032.38;;;22.11;43.55
37202;BME280;37799;52.390;6.136;2023-04-29T12:28:22;102031.16;;;22.01;47.84
37202;BME280;37799;52.390;6.136;2023-04-29T12:30:50;102029.81;;;22.10;46.36
37202;BME280;37799;52.390;6.136;2023-04-29T12:33:19;102044.25;;;22.50;41.78
37202;BME280;37799;52.390;6.136;2023-04-29T12:35:46;102040.00;;;22.47;43.12
37202;BME280;37799;52.390;6.136;2023-04-29T12:38:15;102038.66;;;22.24;42.26
37202;BME280;37799;52.390;6.136;2023-04-29T12:40:40;102038.66;;;22.08;40.50
37202;BME280;37799;52.390;6.136;2023-04-29T12:43:06;102031.16;;;22.01;41.86
37202;BME280;37799;52.390;6.136;2023-04-29T12:45:32;102033.47;;;22.07;41.96
37202;BME280;37799;52.390;6.136;2023-04-29T12:47:59;102032.81;;;21.70;42.73
37202;BME280;37799;52.390;6.136;2023-04-29T12:50:33;102038.47;;;21.96;44.04
37202;BME280;37799;52.390;6.136;2023-04-29T12:52:59;102028.34;;;21.88;45.44
37202;BME280;37799;52.390;6.136;2023-04-29T12:55:25;102026.28;;;21.44;45.86
37202;BME280;37799;52.390;6.136;2023-04-29T12:57:51;102028.19;;;21.58;43.60
37202;BME280;37799;52.390;6.136;2023-04-29T13:00:17;102030.06;;;21.56;41.88